PWSweather.com
Personal Weather Stations
Station Observations
WISCHPK61
Green Bay Schmitt Park, Green Bay, WI 54311

Green Bay Schmitt ParkGreen Bay, WI 54311

Lat: 44.514277, Lon: -87.935067

Elevation: 735

Station Type: Acu Rite Pro Weather Center model 02032C

http://greenbayweathercam.com

High Low Average
Temperature 38.7°F3.7°C 29.3°F-1.5°C 34.3°F1.3°C
Dew Point 38.4°F3.6°C 23.6°F-4.7°C 32.1°F0.1°C
Winds Calm Calm Calm Calm Calm SECalm SE
Wind Gusts -- -- --
Humidity 99% 65% 92%
Pressure 29.38 in994.9 mb 29.04 in983.4 mb -
Precipitation 0.00 in0.0 mm - -
Hour Temp Dew Point Humidity Winds Wind Gusts Pressure Precip Precip Rate Daily Precip Total
12:00 AM 34.0°F1.1°C 33.7°F0.9°C 99% Calm Calm -- 29.37 in994.6 mb - 0.00 in0.0 mm 0.00 in0.0 mm
01:00 AM 33.4°F0.8°C 33.1°F0.6°C 99% Calm Calm -- 29.38 in994.9 mb - 0.00 in0.0 mm 0.00 in0.0 mm
02:00 AM 33.4°F0.8°C 33.1°F0.6°C 99% Calm Calm -- 29.33 in993.2 mb - 0.00 in0.0 mm 0.00 in0.0 mm
03:00 AM 32.7°F0.4°C 23.6°F-4.7°C 69% Calm Calm -- 29.32 in992.9 mb - 0.00 in0.0 mm 0.00 in0.0 mm
04:00 AM 32.0°F0.0°C 31.8°F-0.1°C 99% Calm Calm -- 29.31 in992.6 mb - 0.00 in0.0 mm 0.00 in0.0 mm
05:00 AM 31.3°F-0.4°C 31.1°F-0.5°C 99% Calm Calm -- 29.30 in992.2 mb - 0.00 in0.0 mm 0.00 in0.0 mm
06:00 AM 30.7°F-0.7°C 30.5°F-0.8°C 99% Calm Calm -- 29.29 in991.9 mb - 0.00 in0.0 mm 0.00 in0.0 mm
07:00 AM 30.9°F-0.6°C 30.7°F-0.7°C 99% Calm Calm -- 29.28 in991.5 mb - 0.00 in0.0 mm 0.00 in0.0 mm
08:00 AM 32.4°F0.2°C 32.2°F0.1°C 99% Calm Calm -- 29.25 in990.5 mb - 0.00 in0.0 mm 0.00 in0.0 mm
09:00 AM 34.3°F1.3°C 27.8°F-2.3°C 77% Calm Calm -- 29.26 in990.9 mb - 0.00 in0.0 mm 0.00 in0.0 mm
10:00 AM 34.0°F1.1°C 25.6°F-3.6°C 71% Calm Calm -- 29.21 in989.2 mb - 0.00 in0.0 mm 0.00 in0.0 mm
11:00 AM 35.2°F1.8°C 33.4°F0.8°C 93% Calm Calm -- 29.16 in987.5 mb - 0.00 in0.0 mm 0.00 in0.0 mm
12:00 PM 36.1°F2.3°C 32.6°F0.3°C 87% Calm Calm -- 29.14 in986.8 mb - 0.00 in0.0 mm 0.00 in0.0 mm
01:00 PM 35.6°F2.0°C 35.3°F1.8°C 99% Calm Calm -- 29.11 in985.8 mb - 0.00 in0.0 mm 0.00 in0.0 mm
02:00 PM 37.4°F3.0°C 37.1°F2.8°C 99% Calm Calm -- 29.09 in985.1 mb - 0.00 in0.0 mm 0.00 in0.0 mm
03:00 PM 37.9°F3.3°C 37.6°F3.1°C 99% Calm Calm -- 29.08 in984.8 mb - 0.00 in0.0 mm 0.00 in0.0 mm
04:00 PM 37.8°F3.2°C 37.5°F3.1°C 99% Calm Calm -- 29.05 in983.7 mb - 0.00 in0.0 mm 0.00 in0.0 mm
05:00 PM 38.7°F3.7°C 38.4°F3.6°C 99% Calm Calm -- 29.04 in983.4 mb - 0.00 in0.0 mm 0.00 in0.0 mm
06:00 PM 38.5°F3.6°C 27.7°F-2.4°C 65% Calm Calm -- 29.04 in983.4 mb - 0.00 in0.0 mm 0.00 in0.0 mm
07:00 PM 38.1°F3.4°C 37.8°F3.2°C 99% Calm Calm -- 29.05 in983.7 mb - 0.00 in0.0 mm 0.00 in0.0 mm
08:00 PM 36.1°F2.3°C 27.6°F-2.4°C 71% Calm Calm -- 29.06 in984.1 mb - 0.00 in0.0 mm 0.00 in0.0 mm
09:00 PM 34.2°F1.2°C 33.9°F1.1°C 99% Calm Calm -- 29.09 in985.1 mb - 0.00 in0.0 mm 0.00 in0.0 mm
10:00 PM 33.1°F0.6°C 32.9°F0.5°C 99% Calm Calm -- 29.10 in985.4 mb - 0.00 in0.0 mm 0.00 in0.0 mm
11:00 PM 30.9°F-0.6°C 30.7°F-0.7°C 99% Calm Calm -- 29.11 in985.8 mb - 0.00 in0.0 mm 0.00 in0.0 mm